Burney, California
Current Conditions -  °F | °C
As of 6:38 AM on Saturday 25 Oct 2014 (Local Time) from KRDD Reporting Station
Light Rain Light Rain  
Wind Chill: 59°   Ceiling: 8000
Heat Index: 59°   Visibility: 10mi
Dew Point: 57°   Wind: 13mph
Humidity: 93%   Direction: 200°SSW
Pressure: 29.78"   Gusts: 22mph
Location:  40.88°N, 121.66°W
Report Text: KRDD 251338Z 20011G19KT 10SM -RA SCT012 BKN080 OVC095 15/14 A2978 RMK AO2 WSHFT 1320 P0012 T01500139
Loading
Personal Weather Stations






























Interactive Weather Map
Tropical Storm Tracking
New forecast layout! Learn more

10-Day Weather Forecast

Advertisements
Track Severe Weather on mobile